createdAt,value
2022-09-21T00:03:15.512Z,8.73
2022-09-21T00:08:18.183Z,8.69
2022-09-21T00:13:21.314Z,8.57
2022-09-21T00:18:25.501Z,8.52
2022-09-21T00:23:28.066Z,8.52
2022-09-21T00:28:30.621Z,8.48
2022-09-21T00:33:35.136Z,8.41
2022-09-21T00:38:38.267Z,8.37
2022-09-21T00:43:45.518Z,8.41
2022-09-21T00:48:53.411Z,8.50
2022-09-21T00:54:04.452Z,8.40
2022-09-21T00:59:08.087Z,8.33
2022-09-21T01:04:13.615Z,8.22
2022-09-21T01:09:16.980Z,8.20
2022-09-21T01:14:28.327Z,8.17
2022-09-21T01:19:49.231Z,8.22
2022-09-21T01:25:02.019Z,8.16
2022-09-21T01:30:07.371Z,8.14
2022-09-21T01:35:13.562Z,7.94
2022-09-21T01:40:19.645Z,7.93
2022-09-21T01:45:27.528Z,7.92
2022-09-21T01:50:33.912Z,7.92
2022-09-21T01:55:39.309Z,7.78
2022-09-21T02:00:45.947Z,7.74
2022-09-21T02:05:48.561Z,7.56
2022-09-21T02:10:52.751Z,7.60
2022-09-21T02:16:05.497Z,7.56
2022-09-21T02:21:12.972Z,7.54
2022-09-21T02:26:19.628Z,7.51
2022-09-21T02:31:28.918Z,7.53
2022-09-21T02:36:35.561Z,7.37
2022-09-21T02:41:46.152Z,7.16
2022-09-21T02:46:54.213Z,7.26
2022-09-21T02:51:59.775Z,7.22
2022-09-21T02:57:03.470Z,7.18
2022-09-21T03:02:08.047Z,6.96
2022-09-21T03:07:10.720Z,6.92
2022-09-21T03:12:13.833Z,6.98
2022-09-21T03:17:17.744Z,6.85
2022-09-21T03:22:21.195Z,6.81
2022-09-21T03:27:24.011Z,6.81
2022-09-21T03:32:27.886Z,6.77
2022-09-21T03:37:31.010Z,6.70
2022-09-21T03:42:34.294Z,6.62
2022-09-21T03:47:38.383Z,6.65
2022-09-21T03:52:41.311Z,6.65
2022-09-21T03:57:43.911Z,6.71
2022-09-21T04:02:47.908Z,6.52
2022-09-21T04:07:50.588Z,6.49
2022-09-21T04:12:53.406Z,6.56
2022-09-21T04:17:57.507Z,6.33
2022-09-21T04:23:00.052Z,6.26
2022-09-21T04:28:03.007Z,6.37
2022-09-21T04:33:06.956Z,6.22
2022-09-21T04:38:09.539Z,6.30
2022-09-21T04:43:12.084Z,6.07
2022-09-21T04:48:16.077Z,5.88
2022-09-21T04:53:18.656Z,6.07
2022-09-21T04:58:24.483Z,5.98
2022-09-21T05:03:29.046Z,5.93
2022-09-21T05:08:50.076Z,5.94
2022-09-21T05:13:52.762Z,5.83
2022-09-21T05:18:56.686Z,5.72
2022-09-21T05:23:59.478Z,5.70
2022-09-21T05:29:02.592Z,5.80
2022-09-21T05:34:18.537Z,5.76
2022-09-21T05:39:21.784Z,5.78
2022-09-21T05:44:24.977Z,5.91
2022-09-21T05:49:37.717Z,5.91
2022-09-21T05:54:51.924Z,6.10
2022-09-21T06:00:02.910Z,6.19
2022-09-21T06:05:16.891Z,6.12
2022-09-21T06:10:19.570Z,6.31
2022-09-21T06:15:22.251Z,6.39
2022-09-21T06:20:26.315Z,6.55
2022-09-21T06:25:28.913Z,6.59
2022-09-21T06:30:33.165Z,6.59
2022-09-21T06:35:37.822Z,6.85
2022-09-21T06:40:43.444Z,7.04
2022-09-21T06:45:53.797Z,7.21
2022-09-21T06:51:00.224Z,7.32
2022-09-21T06:56:03.694Z,7.54
2022-09-21T07:01:08.010Z,7.74
2022-09-21T07:06:15.411Z,7.85
2022-09-21T07:11:17.987Z,8.01
2022-09-21T07:16:21.525Z,8.19
2022-09-21T07:21:25.689Z,8.39
2022-09-21T07:26:28.670Z,8.48
2022-09-21T07:31:31.467Z,8.72
2022-09-21T07:36:35.466Z,8.94
2022-09-21T07:41:38.576Z,9.16
2022-09-21T07:46:47.803Z,9.28
2022-09-21T07:51:52.085Z,9.51
2022-09-21T07:57:11.306Z,9.68
2022-09-21T08:02:13.978Z,9.83
2022-09-21T08:07:18.080Z,9.95
2022-09-21T08:12:20.760Z,10.13
2022-09-21T08:17:24.588Z,10.05
2022-09-21T08:22:29.041Z,10.45
2022-09-21T08:27:31.682Z,10.54
2022-09-21T08:32:50.562Z,10.64
2022-09-21T08:37:56.035Z,10.76
2022-09-21T08:43:02.779Z,11.01
2022-09-21T08:48:09.753Z,11.06
2022-09-21T08:53:15.993Z,11.39
2022-09-21T08:58:23.032Z,11.47
2022-09-21T09:03:35.973Z,11.69
2022-09-21T09:09:09.478Z,11.86
2022-09-21T09:14:21.221Z,11.95
2022-09-21T09:19:28.718Z,12.13
2022-09-21T09:24:39.034Z,12.20
2022-09-21T09:29:46.504Z,12.41
2022-09-21T09:34:54.592Z,12.56
2022-09-21T09:40:00.731Z,12.62
2022-09-21T09:45:13.980Z,12.68
2022-09-21T09:50:21.676Z,12.74
2022-09-21T09:55:30.132Z,12.99
2022-09-21T10:00:32.899Z,13.09
2022-09-21T10:05:38.184Z,13.31
2022-09-21T10:10:42.930Z,13.44
2022-09-21T10:15:50.186Z,13.69
2022-09-21T10:20:57.655Z,13.73
2022-09-21T10:26:04.135Z,13.89
2022-09-21T10:31:24.531Z,13.87
2022-09-21T10:36:33.094Z,14.19
2022-09-21T10:41:37.556Z,13.73
2022-09-21T10:46:40.267Z,13.58
2022-09-21T10:51:46.091Z,13.72
2022-09-21T10:56:59.109Z,14.35
2022-09-21T11:02:03.197Z,14.48
2022-09-21T11:07:12.509Z,13.97
2022-09-21T11:12:29.376Z,14.53
2022-09-21T11:17:36.809Z,14.80
2022-09-21T11:22:43.328Z,14.98
2022-09-21T11:27:49.247Z,14.97
2022-09-21T11:33:05.271Z,15.25
2022-09-21T11:38:14.154Z,15.63
2022-09-21T11:43:36.278Z,15.53
2022-09-21T11:48:53.290Z,15.72
2022-09-21T11:54:32.582Z,15.39
2022-09-21T11:59:49.369Z,16.02
2022-09-21T12:04:55.905Z,16.29
2022-09-21T12:10:11.061Z,16.11
2022-09-21T12:15:19.870Z,16.62
2022-09-21T12:20:28.888Z,16.02
2022-09-21T12:25:35.940Z,16.40
2022-09-21T12:30:43.057Z,16.20
2022-09-21T12:35:48.709Z,16.11
2022-09-21T12:40:53.978Z,15.98
2022-09-21T12:46:00.642Z,16.27
2022-09-21T12:51:08.448Z,16.70
2022-09-21T12:56:13.782Z,16.79
2022-09-21T13:01:26.575Z,16.96
2022-09-21T13:06:59.667Z,16.69
2022-09-21T13:12:08.511Z,16.12
2022-09-21T13:17:21.585Z,15.74
2022-09-21T13:22:25.678Z,16.48
2022-09-21T13:28:00.601Z,16.41
2022-09-21T13:33:08.890Z,16.13
2022-09-21T13:38:25.368Z,16.21
2022-09-21T13:44:05.609Z,16.13
2022-09-21T13:49:19.958Z,15.90
2022-09-21T13:54:25.336Z,16.39
2022-09-21T13:59:28.992Z,16.34
2022-09-21T14:04:36.710Z,15.81
2022-09-21T14:09:43.002Z,16.17
2022-09-21T14:15:23.952Z,15.94
2022-09-21T14:20:30.857Z,16.02
2022-09-21T14:25:52.155Z,16.07
2022-09-21T14:30:57.523Z,15.78
2022-09-21T14:36:03.551Z,15.65
2022-09-21T14:41:08.572Z,15.63
2022-09-21T14:46:25.895Z,15.64
2022-09-21T14:51:38.151Z,15.73
2022-09-21T14:57:01.302Z,15.74
2022-09-21T15:02:15.360Z,15.62
2022-09-21T15:07:47.050Z,15.50
2022-09-21T15:12:55.933Z,15.60
2022-09-21T15:18:00.603Z,15.52
2022-09-21T15:23:19.219Z,15.65
2022-09-21T15:28:21.872Z,15.58
2022-09-21T15:33:24.668Z,15.55
2022-09-21T15:38:30.418Z,15.45
2022-09-21T15:43:34.407Z,15.31
2022-09-21T15:48:42.316Z,15.25
2022-09-21T15:53:48.101Z,15.27
2022-09-21T15:58:50.979Z,15.20
2022-09-21T16:04:04.089Z,15.14
2022-09-21T16:09:44.906Z,15.12
2022-09-21T16:15:01.909Z,15.15
2022-09-21T16:20:23.434Z,15.16
2022-09-21T16:25:34.125Z,15.07
2022-09-21T16:30:46.004Z,14.98
2022-09-21T16:35:48.643Z,15.04
2022-09-21T16:40:54.004Z,14.93
2022-09-21T16:45:56.677Z,14.79
2022-09-21T16:50:59.303Z,14.71
2022-09-21T16:56:03.649Z,14.61
2022-09-21T17:01:06.548Z,14.55
2022-09-21T17:06:14.965Z,14.43
2022-09-21T17:11:20.652Z,14.32
2022-09-21T17:16:24.325Z,14.23
2022-09-21T17:21:27.200Z,14.12
2022-09-21T17:26:31.391Z,14.02
2022-09-21T17:31:35.033Z,13.84
2022-09-21T17:36:37.736Z,13.73
2022-09-21T17:41:51.284Z,13.64
2022-09-21T17:46:58.217Z,13.51
2022-09-21T17:52:18.883Z,13.42
2022-09-21T17:57:36.045Z,13.23
2022-09-21T18:02:39.442Z,13.03
2022-09-21T18:07:42.612Z,13.03
2022-09-21T18:13:03.628Z,12.97
2022-09-21T18:18:13.747Z,12.83
2022-09-21T18:23:20.447Z,12.77
2022-09-21T18:28:36.210Z,12.48
2022-09-21T18:33:45.686Z,12.54
2022-09-21T18:38:57.154Z,12.42
2022-09-21T18:44:10.109Z,12.31
2022-09-21T18:49:18.610Z,12.12
2022-09-21T18:54:23.326Z,12.10
2022-09-21T18:59:31.714Z,12.02
2022-09-21T19:04:35.297Z,11.90
2022-09-21T19:09:43.696Z,11.80
2022-09-21T19:14:56.004Z,11.94
2022-09-21T19:20:10.054Z,11.89
2022-09-21T19:25:18.285Z,11.86
2022-09-21T19:30:22.871Z,11.67
2022-09-21T19:35:27.659Z,11.60
2022-09-21T19:40:32.777Z,11.49
2022-09-21T19:45:46.064Z,11.35
2022-09-21T19:50:54.514Z,11.24
2022-09-21T19:56:15.768Z,11.05
2022-09-21T20:01:23.065Z,11.05
2022-09-21T20:06:28.936Z,10.95
2022-09-21T20:11:45.745Z,10.91
2022-09-21T20:16:52.042Z,10.73
2022-09-21T20:21:58.677Z,10.71
2022-09-21T20:27:03.769Z,10.73
2022-09-21T20:32:09.899Z,10.70
2022-09-21T20:37:13.392Z,10.65
2022-09-21T20:42:20.973Z,10.46
2022-09-21T20:47:24.942Z,10.34
2022-09-21T20:52:27.675Z,10.52
2022-09-21T20:57:31.671Z,10.51
2022-09-21T21:02:35.886Z,10.43
2022-09-21T21:07:38.554Z,10.40
2022-09-21T21:12:41.672Z,10.30
2022-09-21T21:17:47.750Z,10.22
2022-09-21T21:22:51.269Z,10.18
2022-09-21T21:27:57.294Z,10.15
2022-09-21T21:33:01.710Z,10.04
2022-09-21T21:38:04.327Z,9.89
2022-09-21T21:43:07.012Z,9.91
2022-09-21T21:48:10.904Z,9.82
2022-09-21T21:53:13.471Z,9.75
2022-09-21T21:58:16.012Z,9.69
2022-09-21T22:03:19.904Z,9.62
2022-09-21T22:08:22.479Z,9.55
2022-09-21T22:13:25.511Z,9.50
2022-09-21T22:18:29.458Z,9.43
2022-09-21T22:23:32.318Z,9.33
2022-09-21T22:28:35.706Z,9.24
2022-09-21T22:33:39.746Z,9.33
2022-09-21T22:38:43.160Z,9.17
2022-09-21T22:43:47.302Z,9.18
2022-09-21T22:48:51.768Z,9.12
2022-09-21T22:53:54.414Z,9.02
2022-09-21T22:58:58.315Z,8.93
2022-09-21T23:04:03.830Z,8.97
2022-09-21T23:09:16.746Z,9.05
2022-09-21T23:14:19.468Z,9.02
2022-09-21T23:19:23.374Z,9.05
2022-09-21T23:24:25.911Z,8.98
2022-09-21T23:29:28.462Z,8.91
2022-09-21T23:34:32.390Z,8.86
2022-09-21T23:39:34.934Z,8.75
2022-09-21T23:44:37.474Z,8.76
2022-09-21T23:49:41.499Z,8.67
2022-09-21T23:54:45.229Z,8.63
2022-09-21T23:59:48.152Z,8.66
